createdAt,value
2022-12-19T00:01:53.511Z,38.70
2022-12-19T00:04:21.280Z,39.10
2022-12-19T00:06:48.840Z,44.10
2022-12-19T00:09:16.460Z,51.90
2022-12-19T00:11:44.058Z,51.60
2022-12-19T00:14:12.248Z,44.60
2022-12-19T00:16:40.017Z,51.90
2022-12-19T00:19:09.673Z,51.80
2022-12-19T00:21:38.124Z,51.60
2022-12-19T00:24:18.420Z,53.50
2022-12-19T00:26:49.870Z,57.00
2022-12-19T00:29:17.579Z,54.50
2022-12-19T00:31:45.530Z,48.30
2022-12-19T00:34:13.219Z,56.90
2022-12-19T00:36:41.289Z,49.80
2022-12-19T00:39:09.354Z,44.30
2022-12-19T00:41:40.066Z,52.40
2022-12-19T00:44:14.342Z,57.20
2022-12-19T00:46:42.710Z,52.00
2022-12-19T00:49:12.851Z,55.20
2022-12-19T00:51:40.728Z,54.50
2022-12-19T00:54:10.211Z,54.50
2022-12-19T00:56:38.506Z,46.00
2022-12-19T00:59:07.076Z,46.00
2022-12-19T01:01:37.657Z,50.50
2022-12-19T01:06:57.906Z,46.40
2022-12-19T01:09:30.942Z,42.00
2022-12-19T01:11:58.871Z,51.90
2022-12-19T01:14:26.803Z,54.00
2022-12-19T01:16:54.534Z,49.40
2022-12-19T01:19:22.563Z,44.50
2022-12-19T01:21:50.422Z,50.10
2022-12-19T01:24:19.100Z,51.50
2022-12-19T01:26:47.371Z,51.80
2022-12-19T01:29:15.423Z,55.10
2022-12-19T01:31:43.458Z,52.10
2022-12-19T01:34:11.320Z,42.70
2022-12-19T01:36:40.073Z,50.10
2022-12-19T01:39:08.373Z,53.10
2022-12-19T01:41:37.574Z,54.90
2022-12-19T01:44:08.209Z,53.70
2022-12-19T01:46:37.655Z,59.70
2022-12-19T01:49:10.008Z,62.90
2022-12-19T01:51:43.433Z,46.00
2022-12-19T01:54:17.581Z,62.30
2022-12-19T01:56:50.289Z,70.00
2022-12-19T01:59:22.506Z,55.40
2022-12-19T02:01:55.598Z,48.60
2022-12-19T02:04:26.296Z,41.30
2022-12-19T02:07:14.395Z,43.10
2022-12-19T02:09:56.644Z,41.50
2022-12-19T02:12:28.458Z,51.00
2022-12-19T02:15:02.804Z,42.70
2022-12-19T02:17:33.695Z,35.40
2022-12-19T02:20:33.934Z,49.60
2022-12-19T02:23:17.075Z,49.10
2022-12-19T02:25:56.765Z,39.20
2022-12-19T02:28:43.216Z,39.90
2022-12-19T02:31:17.846Z,33.80
2022-12-19T02:34:10.468Z,42.00
2022-12-19T02:36:48.906Z,37.80
2022-12-19T02:39:26.617Z,38.40
2022-12-19T02:41:58.225Z,39.70
2022-12-19T02:44:41.257Z,37.30
2022-12-19T02:47:10.049Z,41.90
2022-12-19T02:49:39.230Z,41.70
2022-12-19T02:52:10.926Z,45.50
2022-12-19T02:54:45.213Z,36.20
2022-12-19T02:57:20.247Z,47.90
2022-12-19T02:59:58.598Z,43.50
2022-12-19T03:02:47.500Z,39.10
2022-12-19T03:05:34.183Z,39.00
2022-12-19T03:08:21.673Z,42.70
2022-12-19T03:11:01.416Z,39.30
2022-12-19T03:13:34.322Z,51.80
2022-12-19T03:16:04.569Z,62.00
2022-12-19T03:18:33.591Z,56.90
2022-12-19T03:21:11.267Z,57.20
2022-12-19T03:23:40.111Z,54.60
2022-12-19T03:26:12.418Z,46.60
2022-12-19T03:28:51.544Z,52.40
2022-12-19T03:31:23.840Z,49.10
2022-12-19T03:33:56.730Z,52.00
2022-12-19T03:36:30.666Z,49.90
2022-12-19T03:39:01.933Z,40.70
2022-12-19T03:41:31.551Z,36.30
2022-12-19T03:43:59.440Z,36.90
2022-12-19T03:46:27.958Z,35.00
2022-12-19T03:48:56.060Z,38.00
2022-12-19T03:51:45.566Z,57.30
2022-12-19T03:54:27.076Z,48.20
2022-12-19T03:57:08.526Z,29.80
2022-12-19T03:59:52.676Z,42.90
2022-12-19T04:02:22.607Z,40.30
2022-12-19T04:05:02.522Z,38.60
2022-12-19T04:07:31.448Z,41.40
2022-12-19T04:09:59.393Z,43.90
2022-12-19T04:12:34.261Z,39.30
2022-12-19T04:15:02.216Z,40.80
2022-12-19T04:17:49.358Z,37.80
2022-12-19T04:20:20.984Z,34.60
2022-12-19T04:22:54.815Z,39.50
2022-12-19T04:25:29.633Z,36.70
2022-12-19T04:28:03.411Z,34.20
2022-12-19T04:30:36.607Z,35.20
2022-12-19T04:33:05.032Z,38.40
2022-12-19T04:35:33.134Z,39.00
2022-12-19T04:38:01.126Z,48.10
2022-12-19T04:40:29.274Z,30.00
2022-12-19T04:42:56.839Z,34.90
2022-12-19T04:45:24.879Z,44.30
2022-12-19T04:47:53.066Z,31.80
2022-12-19T04:50:20.890Z,35.40
2022-12-19T04:52:49.331Z,36.90
2022-12-19T04:55:18.972Z,32.20
2022-12-19T04:57:46.930Z,36.40
2022-12-19T05:00:15.066Z,35.80
2022-12-19T05:02:42.842Z,38.70
2022-12-19T05:05:10.544Z,37.60
2022-12-19T05:07:38.436Z,38.00
2022-12-19T05:10:07.623Z,38.60
2022-12-19T05:12:35.586Z,36.20
2022-12-19T05:15:03.480Z,45.40
2022-12-19T05:17:31.382Z,39.70
2022-12-19T05:19:59.069Z,49.30
2022-12-19T05:22:27.334Z,41.60
2022-12-19T05:24:54.852Z,39.70
2022-12-19T05:27:23.087Z,38.70
2022-12-19T05:29:51.120Z,33.50
2022-12-19T05:32:18.800Z,40.20
2022-12-19T05:34:46.680Z,49.20
2022-12-19T05:37:14.319Z,48.00
2022-12-19T05:39:42.065Z,43.40
2022-12-19T05:42:12.474Z,38.80
2022-12-19T05:44:40.525Z,50.40
2022-12-19T05:47:08.299Z,47.20
2022-12-19T05:49:36.043Z,47.30
2022-12-19T05:52:04.318Z,44.70
2022-12-19T05:54:32.296Z,48.10
2022-12-19T05:57:00.016Z,53.60
2022-12-19T05:59:28.605Z,45.50
2022-12-19T06:01:56.800Z,46.20
2022-12-19T06:04:24.896Z,45.40
2022-12-19T06:06:52.574Z,47.80
2022-12-19T06:09:20.645Z,38.10
2022-12-19T06:11:48.717Z,40.20
2022-12-19T06:14:16.865Z,47.50
2022-12-19T06:16:44.940Z,48.90
2022-12-19T06:19:12.575Z,51.40
2022-12-19T06:21:47.919Z,64.80
2022-12-19T06:24:16.316Z,59.10
2022-12-19T06:26:44.673Z,62.90
2022-12-19T06:29:12.644Z,66.50
2022-12-19T06:31:40.290Z,55.10
2022-12-19T06:34:10.521Z,58.10
2022-12-19T06:36:38.689Z,49.60
2022-12-19T06:39:06.508Z,57.10
2022-12-19T06:41:34.099Z,47.50
2022-12-19T06:44:03.946Z,57.20
2022-12-19T06:46:32.942Z,56.10
2022-12-19T06:49:01.081Z,53.70
2022-12-19T06:51:29.134Z,56.20
2022-12-19T06:53:57.488Z,45.30
2022-12-19T06:56:25.594Z,42.40
2022-12-19T06:58:53.381Z,49.90
2022-12-19T07:01:23.961Z,39.30
2022-12-19T07:03:52.310Z,39.60
2022-12-19T07:06:20.860Z,49.50
2022-12-19T07:08:48.691Z,48.10
2022-12-19T07:11:16.509Z,48.60
2022-12-19T07:13:45.438Z,43.90
2022-12-19T07:16:14.839Z,46.20
2022-12-19T07:18:44.342Z,48.60
2022-12-19T07:21:13.442Z,53.90
2022-12-19T07:23:41.453Z,53.00
2022-12-19T07:26:09.371Z,46.60
2022-12-19T07:28:37.880Z,57.30
2022-12-19T07:31:05.809Z,104.90
2022-12-19T07:33:33.631Z,81.80
2022-12-19T07:36:01.823Z,87.20
2022-12-19T07:38:29.648Z,86.50
2022-12-19T07:41:01.072Z,65.20
2022-12-19T07:43:28.904Z,69.50
2022-12-19T07:45:56.904Z,77.00
2022-12-19T07:48:25.126Z,84.10
2022-12-19T07:50:52.672Z,99.20
2022-12-19T07:53:20.490Z,67.90
2022-12-19T07:55:52.547Z,51.50
2022-12-19T07:58:20.219Z,65.10
2022-12-19T08:00:56.001Z,63.70
2022-12-19T08:03:24.617Z,51.80
2022-12-19T08:05:52.750Z,46.40
2022-12-19T08:08:20.627Z,50.20
2022-12-19T08:10:48.649Z,49.40
2022-12-19T08:13:16.508Z,54.60
2022-12-19T08:15:44.431Z,53.20
2022-12-19T08:18:12.624Z,62.80
2022-12-19T08:20:43.502Z,51.50
2022-12-19T08:25:39.292Z,45.60
2022-12-19T08:28:07.150Z,50.00
2022-12-19T08:30:35.196Z,48.30
2022-12-19T08:33:03.474Z,66.00
2022-12-19T08:35:31.534Z,63.30
2022-12-19T08:37:59.376Z,59.10
2022-12-19T08:40:27.019Z,52.40
2022-12-19T08:42:55.650Z,64.70
2022-12-19T08:45:23.375Z,61.50
2022-12-19T08:47:51.199Z,60.00
2022-12-19T08:50:19.063Z,77.90
2022-12-19T08:52:47.212Z,61.90
2022-12-19T08:55:15.604Z,67.50
2022-12-19T08:57:47.591Z,59.20
2022-12-19T09:00:16.080Z,55.30
2022-12-19T09:02:44.842Z,64.20
2022-12-19T09:06:02.217Z,58.60
2022-12-19T09:08:00.870Z,60.70
2022-12-19T09:10:28.856Z,50.50
2022-12-19T09:12:57.948Z,61.40
2022-12-19T09:15:25.981Z,58.40
2022-12-19T09:17:53.913Z,66.80
2022-12-19T09:20:23.559Z,72.80
2022-12-19T09:22:51.606Z,70.80
2022-12-19T09:25:19.196Z,76.60
2022-12-19T09:28:25.283Z,72.50
2022-12-19T09:30:35.524Z,83.40
2022-12-19T09:33:03.194Z,78.50
2022-12-19T09:35:31.149Z,81.80
2022-12-19T09:38:00.506Z,65.00
2022-12-19T12:46:38.305Z,61.80
2022-12-19T12:49:23.078Z,54.30
2022-12-19T12:51:51.961Z,58.00
2022-12-19T12:54:20.735Z,56.20
2022-12-19T12:56:48.823Z,49.90
2022-12-19T12:59:21.409Z,67.20
2022-12-19T13:01:52.151Z,59.60
2022-12-19T13:04:26.195Z,60.70
2022-12-19T13:06:53.715Z,57.50
2022-12-19T13:09:27.246Z,66.50
2022-12-19T13:12:02.548Z,61.70
2022-12-19T13:14:36.558Z,65.90
2022-12-19T13:17:06.200Z,73.00
2022-12-19T13:19:38.329Z,67.20
2022-12-19T13:22:08.824Z,66.20
2022-12-19T13:24:48.529Z,69.50
2022-12-19T13:27:19.035Z,65.20
2022-12-19T13:30:02.206Z,68.20
2022-12-19T13:32:53.935Z,73.10
2022-12-19T13:36:38.611Z,76.80
2022-12-19T13:39:55.642Z,83.10
2022-12-19T13:41:05.860Z,79.90
2022-12-19T13:43:39.203Z,72.80
2022-12-19T13:46:18.837Z,82.00
2022-12-19T13:48:52.343Z,81.10
2022-12-19T13:51:20.067Z,87.40
2022-12-19T13:53:59.034Z,86.30
2022-12-19T13:56:30.364Z,79.90
2022-12-19T14:01:28.036Z,69.30
2022-12-19T14:04:07.659Z,77.70
2022-12-19T14:06:47.536Z,63.30
2022-12-19T14:11:28.167Z,58.00
2022-12-19T14:13:40.421Z,63.30
2022-12-19T14:15:32.452Z,64.80
2022-12-19T14:18:44.819Z,60.40
2022-12-19T14:22:11.645Z,77.00
2022-12-19T14:24:21.939Z,68.90
2022-12-19T14:28:20.708Z,77.50
2022-12-19T14:30:29.692Z,74.30
2022-12-19T14:33:41.969Z,80.50
2022-12-19T14:36:10.213Z,91.50
2022-12-19T14:39:23.376Z,77.00
2022-12-19T14:41:29.521Z,79.30
2022-12-19T14:52:34.729Z,84.20
2022-12-19T14:54:03.816Z,92.10
2022-12-19T14:54:07.203Z,76.60
2022-12-19T14:54:21.298Z,84.70
2022-12-19T14:56:15.944Z,90.00
2022-12-19T14:58:52.848Z,94.50
2022-12-19T15:01:24.176Z,80.30
2022-12-19T15:04:47.833Z,91.50
2022-12-19T15:07:09.670Z,83.00
2022-12-19T15:11:06.501Z,79.70
2022-12-19T15:14:04.191Z,76.60
2022-12-19T15:15:23.048Z,87.90
2022-12-19T15:17:54.461Z,89.40
2022-12-19T15:20:22.419Z,58.10
2022-12-19T15:22:50.095Z,30.10
2022-12-19T15:25:44.052Z,136.60
2022-12-19T15:28:17.737Z,116.20
2022-12-19T15:30:50.507Z,108.10
2022-12-19T15:33:18.183Z,92.20
2022-12-19T15:35:45.765Z,100.50
2022-12-19T15:38:13.306Z,106.80
2022-12-19T15:40:41.990Z,107.50
2022-12-19T15:43:44.885Z,99.40
2022-12-19T15:46:06.053Z,98.60
2022-12-19T15:48:37.424Z,95.50
2022-12-19T15:51:05.528Z,103.00
2022-12-19T15:53:40.804Z,83.90
2022-12-19T15:56:26.897Z,100.00
2022-12-19T15:58:57.353Z,100.30
2022-12-19T16:01:26.113Z,104.10
2022-12-19T16:03:54.350Z,123.10
2022-12-19T16:06:22.365Z,124.80
2022-12-19T16:08:49.974Z,110.90
2022-12-19T16:11:23.586Z,143.70
2022-12-19T16:13:54.159Z,176.60
2022-12-19T16:16:23.407Z,160.80
2022-12-19T16:18:51.239Z,162.10
2022-12-19T16:21:23.648Z,146.50
2022-12-19T16:23:54.979Z,126.60
2022-12-19T16:26:34.833Z,126.10
2022-12-19T16:29:03.150Z,146.90
2022-12-19T16:31:30.824Z,153.60
2022-12-19T16:33:58.478Z,121.80
2022-12-19T16:36:26.086Z,138.40
2022-12-19T16:38:53.648Z,123.20
2022-12-19T16:41:24.469Z,164.60
2022-12-19T16:43:52.596Z,178.10
2022-12-19T16:46:22.997Z,174.10
2022-12-19T16:48:50.594Z,148.20
2022-12-19T16:51:21.562Z,133.40
2022-12-19T16:56:43.636Z,127.10
2022-12-19T16:59:22.635Z,126.70
2022-12-19T17:01:51.320Z,105.10
2022-12-19T17:04:22.764Z,116.30
2022-12-19T17:06:54.237Z,114.00
2022-12-19T17:09:25.337Z,111.80
2022-12-19T17:11:57.281Z,131.20
2022-12-19T17:14:27.232Z,118.20
2022-12-19T17:16:55.949Z,118.60
2022-12-19T17:19:34.445Z,119.20
2022-12-19T17:22:02.176Z,116.80
2022-12-19T17:24:29.755Z,112.60
2022-12-19T17:26:57.311Z,112.40
2022-12-19T17:29:24.922Z,104.70
2022-12-19T17:31:52.619Z,115.40
2022-12-19T17:34:30.782Z,86.50
2022-12-19T17:36:59.281Z,82.70
2022-12-19T17:39:30.310Z,88.40
2022-12-19T17:42:01.478Z,88.10
2022-12-19T17:44:29.056Z,108.80
2022-12-19T17:46:56.639Z,88.80
2022-12-19T17:49:30.298Z,95.40
2022-12-19T17:51:59.713Z,158.00
2022-12-19T17:54:27.591Z,114.40
2022-12-19T17:56:55.596Z,107.20
2022-12-19T17:59:23.218Z,110.60
2022-12-19T18:01:50.935Z,100.50
2022-12-19T18:04:20.228Z,97.30
2022-12-19T18:06:48.515Z,86.90
2022-12-19T18:09:21.228Z,81.00
2022-12-19T18:11:55.969Z,69.30
2022-12-19T18:14:24.043Z,83.30
2022-12-19T18:16:51.794Z,70.00
2022-12-19T18:19:22.471Z,59.60
2022-12-19T18:21:50.268Z,54.30
2022-12-19T18:24:17.813Z,58.10
2022-12-19T18:26:45.979Z,67.90
2022-12-19T18:29:14.070Z,72.90
2022-12-19T18:31:49.763Z,72.40
2022-12-19T18:34:21.493Z,74.60
2022-12-19T18:39:21.327Z,67.50
2022-12-19T18:41:49.843Z,74.20
2022-12-19T18:44:17.862Z,73.10
2022-12-19T18:46:48.517Z,81.30
2022-12-19T18:49:17.477Z,75.90
2022-12-19T18:51:45.280Z,83.80
2022-12-19T18:54:15.629Z,78.40
2022-12-19T18:56:43.488Z,74.90
2022-12-19T18:59:11.484Z,68.80
2022-12-19T19:01:43.246Z,69.00
2022-12-19T19:04:11.131Z,75.30
2022-12-19T19:06:40.277Z,79.60
2022-12-19T19:09:16.446Z,89.40
2022-12-19T19:11:44.256Z,78.80
2022-12-19T19:14:11.922Z,83.60
2022-12-19T19:16:39.889Z,88.20
2022-12-19T19:19:11.911Z,72.40
2022-12-19T19:21:39.500Z,76.60
2022-12-19T19:24:25.314Z,55.40
2022-12-19T19:26:52.854Z,62.20
2022-12-19T19:29:20.422Z,73.10
2022-12-19T19:31:51.745Z,79.70
2022-12-19T19:34:28.213Z,88.40
2022-12-19T19:36:58.547Z,71.70
2022-12-19T19:39:26.852Z,75.40
2022-12-19T19:41:55.012Z,60.20
2022-12-19T19:44:24.144Z,78.10
2022-12-19T19:46:51.797Z,67.10
2022-12-19T19:49:23.047Z,71.00
2022-12-19T19:52:00.289Z,73.00
2022-12-19T19:54:31.335Z,85.20
2022-12-19T19:56:58.879Z,93.10
2022-12-19T19:59:29.972Z,83.40
2022-12-19T20:01:57.642Z,92.70
2022-12-19T20:04:25.719Z,82.70
2022-12-19T20:06:53.323Z,83.20
2022-12-19T20:09:20.924Z,69.10
2022-12-19T20:11:48.484Z,94.70
2022-12-19T20:14:16.076Z,112.10
2022-12-19T20:16:43.739Z,93.60
2022-12-19T20:19:11.408Z,101.20
2022-12-19T20:21:38.978Z,104.50
2022-12-19T20:24:06.690Z,108.70
2022-12-19T20:26:34.911Z,98.50
2022-12-19T20:29:03.263Z,84.00
2022-12-19T20:31:30.905Z,94.20
2022-12-19T20:33:58.770Z,84.00
2022-12-19T20:36:26.345Z,38.20
2022-12-19T20:38:53.913Z,81.10
2022-12-19T20:41:21.586Z,88.00
2022-12-19T20:43:49.193Z,86.60
2022-12-19T20:46:19.377Z,84.50
2022-12-19T20:48:48.036Z,68.10
2022-12-19T20:51:17.822Z,73.00
2022-12-19T20:53:45.919Z,84.60
2022-12-19T20:56:18.704Z,82.20
2022-12-19T20:58:46.787Z,85.00
2022-12-19T21:01:22.592Z,91.30
2022-12-19T21:03:51.003Z,77.30
2022-12-19T21:06:20.443Z,83.40
2022-12-19T21:08:48.423Z,70.10
2022-12-19T21:11:16.231Z,70.70
2022-12-19T21:13:44.737Z,76.90
2022-12-19T21:16:15.062Z,50.80
2022-12-19T21:18:44.585Z,59.80
2022-12-19T21:21:16.362Z,69.10
2022-12-19T21:23:44.275Z,54.90
2022-12-19T21:26:11.899Z,57.80
2022-12-19T21:28:39.522Z,47.70
2022-12-19T21:31:20.472Z,48.40
2022-12-19T21:33:49.085Z,41.90
2022-12-19T21:36:20.553Z,46.10
2022-12-19T21:38:50.595Z,35.50
2022-12-19T21:41:18.746Z,40.70
2022-12-19T21:43:48.184Z,48.70
2022-12-19T21:46:16.689Z,39.60
2022-12-19T21:48:47.377Z,32.00
2022-12-19T21:53:43.289Z,31.30
2022-12-19T21:56:16.513Z,32.20
2022-12-19T21:58:44.101Z,35.70
2022-12-19T22:01:13.386Z,34.90
2022-12-19T22:03:41.378Z,35.70
2022-12-19T22:06:18.785Z,32.90
2022-12-19T22:08:49.331Z,31.30
2022-12-19T22:11:20.416Z,29.60
2022-12-19T22:13:49.180Z,33.70
2022-12-19T22:16:17.578Z,34.70
2022-12-19T22:18:46.171Z,29.10
2022-12-19T22:21:15.427Z,36.60
2022-12-19T22:23:43.153Z,35.90
2022-12-19T22:26:16.293Z,29.40
2022-12-19T22:28:46.505Z,31.40
2022-12-19T22:31:21.593Z,30.20
2022-12-19T22:33:51.813Z,34.50
2022-12-19T22:36:27.593Z,29.00
2022-12-19T22:38:57.124Z,24.50
2022-12-19T22:41:24.937Z,32.00
2022-12-19T22:43:53.304Z,29.50
2022-12-19T22:46:23.688Z,30.30
2022-12-19T22:48:51.340Z,28.90
2022-12-19T22:51:20.131Z,30.30
2022-12-19T22:53:47.969Z,32.60
2022-12-19T22:56:21.312Z,25.50
2022-12-19T22:58:50.975Z,31.80
2022-12-19T23:01:24.009Z,31.30
2022-12-19T23:03:54.175Z,33.90
2022-12-19T23:06:23.682Z,33.00
2022-12-19T23:08:51.914Z,27.40
2022-12-19T23:11:24.295Z,41.80
2022-12-19T23:13:52.065Z,40.60
2022-12-19T23:16:19.693Z,32.20
2022-12-19T23:18:47.285Z,34.30
2022-12-19T23:21:17.582Z,29.80
2022-12-19T23:23:47.613Z,39.80
2022-12-19T23:26:18.251Z,34.70
2022-12-19T23:28:52.722Z,42.90
2022-12-19T23:31:20.442Z,31.00
2022-12-19T23:33:48.096Z,22.30
2022-12-19T23:36:16.418Z,28.80
2022-12-19T23:38:44.465Z,34.00
2022-12-19T23:41:14.730Z,26.70
2022-12-19T23:43:42.662Z,30.80
2022-12-19T23:46:16.187Z,34.30
2022-12-19T23:48:44.393Z,26.90
2022-12-19T23:51:17.452Z,26.00
2022-12-19T23:53:45.830Z,33.70
2022-12-19T23:56:22.167Z,28.80
2022-12-19T23:58:50.279Z,30.00
